createdAt,value
2017-01-22T00:00:22.003Z,0
2017-01-22T00:01:27.194Z,0
2017-01-22T00:02:33.350Z,0
2017-01-22T00:03:39.557Z,0
2017-01-22T00:04:44.732Z,0
2017-01-22T00:05:49.928Z,0
2017-01-22T00:06:55.127Z,0
2017-01-22T00:08:01.287Z,0
2017-01-22T00:09:06.478Z,0
2017-01-22T00:10:11.718Z,0
2017-01-22T00:11:17.838Z,0
2017-01-22T00:12:22.067Z,0
2017-01-22T00:13:28.241Z,0
2017-01-22T00:14:34.402Z,0
2017-01-22T00:15:40.624Z,0
2017-01-22T00:16:44.911Z,0
2017-01-22T00:17:49.147Z,0
2017-01-22T00:18:52.356Z,0
2017-01-22T00:19:57.557Z,0
2017-01-22T00:21:03.721Z,0
2017-01-22T00:22:08.913Z,0
2017-01-22T00:23:15.128Z,0
2017-01-22T00:24:20.272Z,0
2017-01-22T00:25:22.537Z,0
2017-01-22T00:26:28.715Z,0
2017-01-22T00:27:33.912Z,0
2017-01-22T00:28:38.192Z,0
2017-01-22T00:29:44.318Z,0
2017-01-22T00:30:49.480Z,0
2017-01-22T00:31:54.678Z,0
2017-01-22T00:32:58.936Z,0
2017-01-22T00:34:04.177Z,0
2017-01-22T00:35:09.378Z,0
2017-01-22T00:36:14.548Z,0
2017-01-22T00:37:20.712Z,0
2017-01-22T00:38:26.881Z,0
2017-01-22T00:39:33.042Z,0
2017-01-22T00:40:37.266Z,0
2017-01-22T00:41:43.497Z,0
2017-01-22T00:42:47.657Z,0
2017-01-22T00:43:52.848Z,0
2017-01-22T00:44:57.154Z,0
2017-01-22T00:46:02.349Z,0
2017-01-22T00:47:07.540Z,0
2017-01-22T00:48:12.729Z,0
2017-01-22T00:49:17.930Z,0
2017-01-22T00:50:22.128Z,0
2017-01-22T00:51:27.393Z,0
2017-01-22T00:52:32.596Z,0
2017-01-22T00:53:37.765Z,0
2017-01-22T00:54:43.013Z,0
2017-01-22T00:55:49.156Z,0
2017-01-22T00:56:53.354Z,0
2017-01-22T00:57:58.543Z,0
2017-01-22T00:59:04.710Z,0
2017-01-22T01:00:10.870Z,0
2017-01-22T01:01:15.185Z,0
2017-01-22T01:02:20.289Z,0
2017-01-22T01:03:25.459Z,0
2017-01-22T01:04:30.646Z,0
2017-01-22T01:05:36.856Z,0
2017-01-22T01:06:41.085Z,0
2017-01-22T01:07:47.223Z,0
2017-01-22T01:08:51.440Z,0
2017-01-22T01:09:56.606Z,0
2017-01-22T01:11:01.797Z,0
2017-01-22T01:12:06.081Z,0
2017-01-22T01:13:09.427Z,0
2017-01-22T01:14:12.686Z,0
2017-01-22T01:15:17.876Z,0
2017-01-22T01:16:24.048Z,0
2017-01-22T01:17:30.206Z,0
2017-01-22T01:18:35.421Z,0
2017-01-22T01:19:40.600Z,0
2017-01-22T01:20:46.787Z,0
2017-01-22T01:21:52.934Z,0
2017-01-22T01:22:59.091Z,0
2017-01-22T01:24:04.285Z,0
2017-01-22T01:25:09.551Z,0
2017-01-22T01:26:15.715Z,0
2017-01-22T01:27:21.887Z,0
2017-01-22T01:28:26.083Z,0
2017-01-22T01:29:32.248Z,0
2017-01-22T01:30:37.441Z,0
2017-01-22T01:31:42.639Z,0
2017-01-22T01:32:47.904Z,0
2017-01-22T01:33:51.063Z,0
2017-01-22T01:34:55.262Z,0
2017-01-22T01:35:59.457Z,0
2017-01-22T01:37:05.616Z,0
2017-01-22T01:38:10.805Z,0
2017-01-22T01:39:16.967Z,0
2017-01-22T01:40:23.124Z,0
2017-01-22T01:41:29.283Z,0
2017-01-22T01:42:33.514Z,0
2017-01-22T01:43:39.690Z,0
2017-01-22T01:44:43.880Z,0
2017-01-22T01:45:49.069Z,0
2017-01-22T01:46:53.279Z,0
2017-01-22T01:47:57.515Z,0
2017-01-22T01:49:03.672Z,0
2017-01-22T01:50:08.872Z,0
2017-01-22T01:51:13.153Z,0
2017-01-22T01:52:18.331Z,0
2017-01-22T01:53:23.602Z,0
2017-01-22T01:54:28.901Z,0
2017-01-22T01:55:35.096Z,0
2017-01-22T01:56:41.227Z,0
2017-01-22T01:57:47.404Z,0
2017-01-22T01:58:53.568Z,0
2017-01-22T01:59:56.799Z,0
2017-01-22T02:01:02.967Z,0
2017-01-22T02:02:08.160Z,0
2017-01-22T02:03:13.347Z,0
2017-01-22T02:05:22.773Z,0
2017-01-22T02:06:27.974Z,0
2017-01-22T02:07:33.158Z,0
2017-01-22T02:08:37.386Z,0
2017-01-22T02:09:41.635Z,0
2017-01-22T02:10:47.802Z,0
2017-01-22T02:11:51.987Z,0
2017-01-22T02:12:57.277Z,0
2017-01-22T02:14:01.501Z,0
2017-01-22T02:15:06.698Z,0
2017-01-22T02:16:12.860Z,0
2017-01-22T02:17:18.029Z,0
2017-01-22T02:18:22.256Z,0
2017-01-22T02:19:27.450Z,0
2017-01-22T02:20:31.656Z,0
2017-01-22T02:21:37.818Z,0
2017-01-22T02:22:43.027Z,0
2017-01-22T02:23:49.165Z,0
2017-01-22T02:24:55.331Z,0
2017-01-22T02:26:01.540Z,0
2017-01-22T02:27:07.700Z,0
2017-01-22T02:28:12.897Z,0
2017-01-22T02:29:18.058Z,0
2017-01-22T02:30:24.224Z,0
2017-01-22T02:31:30.390Z,0
2017-01-22T02:32:35.596Z,0
2017-01-22T02:33:41.754Z,0
2017-01-22T02:34:46.916Z,0
2017-01-22T02:35:52.123Z,0
2017-01-22T02:36:58.289Z,0
2017-01-22T02:38:04.450Z,0
2017-01-22T02:39:10.620Z,0
2017-01-22T02:40:15.823Z,0
2017-01-22T02:41:21.034Z,0
2017-01-22T02:42:27.225Z,0
2017-01-22T02:43:33.386Z,0
2017-01-22T02:44:37.607Z,0
2017-01-22T02:45:43.774Z,0
2017-01-22T02:46:49.986Z,0
2017-01-22T02:49:00.373Z,0
2017-01-22T02:50:05.572Z,0
2017-01-22T02:51:10.763Z,0
2017-01-22T02:52:16.916Z,0
2017-01-22T02:53:21.165Z,0
2017-01-22T02:54:26.316Z,0
2017-01-22T02:55:30.524Z,0
2017-01-22T02:56:35.717Z,0
2017-01-22T02:57:41.877Z,0
2017-01-22T02:58:48.061Z,0
2017-01-22T02:59:54.220Z,0
2017-01-22T03:01:00.385Z,0
2017-01-22T03:02:06.544Z,0
2017-01-22T03:03:11.735Z,0
2017-01-22T03:04:17.898Z,0
2017-01-22T03:05:22.102Z,0
2017-01-22T03:06:26.360Z,0
2017-01-22T03:07:31.560Z,0
2017-01-22T03:08:36.745Z,0
2017-01-22T03:09:42.914Z,0
2017-01-22T03:10:47.166Z,0
2017-01-22T03:11:51.446Z,0
2017-01-22T03:12:57.605Z,0
2017-01-22T03:14:02.793Z,0
2017-01-22T03:15:07.968Z,0
2017-01-22T03:16:13.134Z,0
2017-01-22T03:17:19.332Z,0
2017-01-22T03:18:24.494Z,0
2017-01-22T03:19:29.686Z,0
2017-01-22T03:20:34.892Z,0
2017-01-22T03:21:39.108Z,0
2017-01-22T03:22:45.266Z,0
2017-01-22T03:23:51.503Z,0
2017-01-22T03:24:55.648Z,0
2017-01-22T03:26:00.842Z,0
2017-01-22T03:27:07.004Z,0
2017-01-22T03:28:12.247Z,0
2017-01-22T03:29:17.485Z,0
2017-01-22T03:30:23.707Z,0
2017-01-22T03:31:27.919Z,0
2017-01-22T03:32:33.113Z,0
2017-01-22T03:33:38.314Z,0
2017-01-22T03:34:44.522Z,0
2017-01-22T03:35:47.750Z,0
2017-01-22T03:36:54.060Z,0
2017-01-22T03:37:59.261Z,0
2017-01-22T03:39:04.445Z,0
2017-01-22T03:40:10.604Z,0
2017-01-22T03:41:16.765Z,0
2017-01-22T03:42:21.925Z,0
2017-01-22T03:43:27.141Z,0
2017-01-22T03:44:30.431Z,0
2017-01-22T03:45:35.628Z,0
2017-01-22T03:46:40.820Z,0
2017-01-22T03:47:46.010Z,0
2017-01-22T03:48:52.180Z,0
2017-01-22T03:49:57.477Z,0
2017-01-22T03:51:03.724Z,0
2017-01-22T03:52:06.953Z,0
2017-01-22T03:53:12.142Z,0
2017-01-22T03:54:18.344Z,0
2017-01-22T03:55:23.531Z,0
2017-01-22T03:56:29.693Z,0
2017-01-22T03:57:32.929Z,0
2017-01-22T03:58:38.129Z,0
2017-01-22T03:59:43.321Z,0
2017-01-22T04:00:48.500Z,0
2017-01-22T04:01:54.679Z,0
2017-01-22T04:02:59.922Z,0
2017-01-22T04:04:06.081Z,0
2017-01-22T04:05:12.237Z,0
2017-01-22T04:06:17.459Z,0
2017-01-22T04:07:23.611Z,0
2017-01-22T04:08:28.778Z,0
2017-01-22T04:09:34.940Z,0
2017-01-22T04:10:40.185Z,0
2017-01-22T04:11:46.349Z,0
2017-01-22T04:12:51.682Z,0
2017-01-22T04:13:56.885Z,0
2017-01-22T04:15:03.038Z,0
2017-01-22T04:16:08.298Z,0
2017-01-22T04:17:13.492Z,0
2017-01-22T04:18:19.649Z,0
2017-01-22T04:19:24.891Z,0
2017-01-22T04:20:31.051Z,0
2017-01-22T04:21:37.218Z,0
2017-01-22T04:22:42.405Z,0
2017-01-22T04:23:47.609Z,0
2017-01-22T04:24:53.763Z,0
2017-01-22T04:25:59.977Z,0
2017-01-22T04:27:05.170Z,0
2017-01-22T04:28:11.361Z,0
2017-01-22T04:29:16.529Z,0
2017-01-22T04:30:22.699Z,0
2017-01-22T04:31:28.867Z,0
2017-01-22T04:32:34.042Z,0
2017-01-22T04:33:39.236Z,0
2017-01-22T04:34:43.453Z,0
2017-01-22T04:35:49.628Z,0
2017-01-22T04:36:55.781Z,0
2017-01-22T04:38:01.943Z,0
2017-01-22T04:39:08.102Z,0
2017-01-22T04:40:12.378Z,0
2017-01-22T04:41:17.555Z,0
2017-01-22T04:42:22.722Z,0
2017-01-22T04:43:27.919Z,0
2017-01-22T04:44:33.080Z,0
2017-01-22T04:45:39.292Z,0
2017-01-22T04:46:45.456Z,0
2017-01-22T04:47:51.712Z,0
2017-01-22T04:48:57.884Z,0
2017-01-22T04:50:04.030Z,0
2017-01-22T04:51:07.255Z,0
2017-01-22T04:52:12.457Z,0
2017-01-22T04:53:16.684Z,0
2017-01-22T04:54:22.862Z,0
2017-01-22T04:55:28.053Z,0
2017-01-22T04:56:33.249Z,0
2017-01-22T04:57:38.420Z,0
2017-01-22T04:58:44.589Z,0
2017-01-22T04:59:50.750Z,0
2017-01-22T05:00:54.978Z,0
2017-01-22T05:01:59.207Z,0
2017-01-22T05:03:04.371Z,0
2017-01-22T05:04:09.562Z,0
2017-01-22T05:05:14.789Z,0
2017-01-22T05:06:18.064Z,0
2017-01-22T05:07:23.278Z,0
2017-01-22T05:08:28.566Z,0
2017-01-22T05:09:34.719Z,0
2017-01-22T05:10:39.912Z,0
2017-01-22T05:11:45.078Z,0
2017-01-22T05:12:51.241Z,0
2017-01-22T05:13:56.400Z,0
2017-01-22T05:15:01.560Z,0
2017-01-22T05:16:06.727Z,0
2017-01-22T05:17:12.888Z,0
2017-01-22T05:18:19.048Z,0
2017-01-22T05:19:25.336Z,0
2017-01-22T05:20:30.442Z,0
2017-01-22T05:21:35.642Z,0
2017-01-22T05:22:40.881Z,0
2017-01-22T05:23:46.087Z,0
2017-01-22T05:24:52.227Z,0
2017-01-22T05:25:58.398Z,0
2017-01-22T05:27:03.587Z,0
2017-01-22T05:28:08.785Z,0
2017-01-22T05:29:14.998Z,0
2017-01-22T05:30:19.220Z,0
2017-01-22T05:31:25.382Z,0
2017-01-22T05:32:30.582Z,0
2017-01-22T05:33:35.773Z,0
2017-01-22T05:34:41.964Z,0
2017-01-22T05:35:47.155Z,0
2017-01-22T05:36:52.363Z,0
2017-01-22T05:37:57.561Z,0
2017-01-22T05:39:02.719Z,0
2017-01-22T05:40:08.880Z,0
2017-01-22T05:41:14.083Z,0
2017-01-22T05:42:19.278Z,0
2017-01-22T05:43:23.489Z,0
2017-01-22T05:45:35.807Z,0
2017-01-22T05:46:41.002Z,0
2017-01-22T05:47:44.263Z,0
2017-01-22T05:48:50.494Z,0
2017-01-22T05:49:56.663Z,0
2017-01-22T05:51:01.824Z,0
2017-01-22T05:52:07.019Z,0
2017-01-22T05:53:12.209Z,0
2017-01-22T05:54:18.366Z,0
2017-01-22T05:55:24.522Z,0
2017-01-22T05:56:29.765Z,0
2017-01-22T05:57:34.951Z,0
2017-01-22T05:58:41.097Z,0
2017-01-22T05:59:46.296Z,0
2017-01-22T06:00:51.596Z,0
2017-01-22T06:01:57.749Z,0
2017-01-22T06:03:01.005Z,0
2017-01-22T06:04:07.160Z,0
2017-01-22T06:05:13.320Z,0
2017-01-22T06:06:18.527Z,0
2017-01-22T06:07:24.690Z,0
2017-01-22T06:08:29.890Z,0
2017-01-22T06:09:35.135Z,0
2017-01-22T06:10:41.253Z,0
2017-01-22T06:11:47.403Z,0
2017-01-22T06:12:53.566Z,0
2017-01-22T06:13:59.731Z,0
2017-01-22T06:15:05.940Z,0
2017-01-22T06:16:12.104Z,0
2017-01-22T06:17:15.329Z,0
2017-01-22T06:18:19.545Z,0
2017-01-22T06:19:24.741Z,0
2017-01-22T06:20:29.938Z,0
2017-01-22T06:21:36.104Z,0
2017-01-22T06:22:41.306Z,0
2017-01-22T06:23:47.458Z,0
2017-01-22T06:24:52.690Z,0
2017-01-22T06:25:57.850Z,0
2017-01-22T06:27:03.039Z,0
2017-01-22T06:28:08.234Z,0
2017-01-22T06:29:13.394Z,0
2017-01-22T06:30:19.553Z,0
2017-01-22T06:31:25.716Z,0
2017-01-22T06:32:30.915Z,0
2017-01-22T06:33:35.177Z,0
2017-01-22T06:34:41.363Z,0
2017-01-22T06:35:46.549Z,0
2017-01-22T06:36:51.740Z,0
2017-01-22T06:37:56.920Z,0
2017-01-22T06:39:02.112Z,0
2017-01-22T06:40:06.359Z,0
2017-01-22T06:41:11.550Z,0
2017-01-22T06:42:14.778Z,0
2017-01-22T06:43:20.942Z,0
2017-01-22T06:44:27.202Z,0
2017-01-22T06:45:31.452Z,0
2017-01-22T06:46:36.726Z,0
2017-01-22T06:47:42.016Z,0
2017-01-22T06:48:48.188Z,0
2017-01-22T06:49:54.347Z,0
2017-01-22T06:50:58.566Z,0
2017-01-22T06:52:04.735Z,0
2017-01-22T06:53:09.899Z,0
2017-01-22T06:54:16.053Z,0
2017-01-22T06:55:20.244Z,0
2017-01-22T06:56:25.413Z,0
2017-01-22T06:57:30.585Z,0
2017-01-22T06:58:34.781Z,0
2017-01-22T06:59:39.004Z,0
2017-01-22T07:00:44.190Z,0
2017-01-22T07:01:48.401Z,0
2017-01-22T07:02:53.589Z,0
2017-01-22T07:03:58.817Z,0
2017-01-22T07:05:03.034Z,0
2017-01-22T07:06:09.212Z,0
2017-01-22T07:07:14.406Z,0
2017-01-22T07:08:20.566Z,0
2017-01-22T07:09:26.788Z,5
2017-01-22T07:10:32.961Z,5
2017-01-22T07:11:38.160Z,5
2017-01-22T07:12:43.362Z,5
2017-01-22T07:13:48.541Z,5
2017-01-22T07:14:53.737Z,5
2017-01-22T07:15:57.932Z,5
2017-01-22T07:17:04.099Z,10
2017-01-22T07:18:09.418Z,10
2017-01-22T07:19:13.709Z,10
2017-01-22T07:20:18.894Z,10
2017-01-22T07:21:25.054Z,15
2017-01-22T07:22:31.209Z,15
2017-01-22T07:23:37.373Z,15
2017-01-22T07:24:42.577Z,15
2017-01-22T07:25:48.735Z,20
2017-01-22T07:26:54.929Z,20
2017-01-22T07:28:00.114Z,20
2017-01-22T07:29:06.270Z,25
2017-01-22T07:30:09.499Z,25
2017-01-22T07:31:15.686Z,25
2017-01-22T07:32:20.870Z,30
2017-01-22T07:33:27.029Z,30
2017-01-22T07:34:32.227Z,30
2017-01-22T07:35:35.488Z,35
2017-01-22T07:36:41.664Z,35
2017-01-22T07:37:46.822Z,35
2017-01-22T07:38:51.048Z,40
2017-01-22T07:39:56.241Z,40
2017-01-22T07:41:02.395Z,45
2017-01-22T07:42:07.588Z,45
2017-01-22T07:43:12.776Z,45
2017-01-22T07:44:18.949Z,50
2017-01-22T07:45:24.129Z,50
2017-01-22T07:46:29.318Z,55
2017-01-22T07:47:34.497Z,55
2017-01-22T07:48:40.745Z,55
2017-01-22T07:49:45.925Z,60
2017-01-22T07:50:51.092Z,60
2017-01-22T07:51:57.257Z,65
2017-01-22T07:53:03.413Z,65
2017-01-22T07:54:09.571Z,70
2017-01-22T07:55:15.738Z,75
2017-01-22T07:56:20.900Z,80
2017-01-22T07:57:26.077Z,80
2017-01-22T07:58:30.299Z,90
2017-01-22T07:59:34.519Z,110
2017-01-22T08:00:39.749Z,135
2017-01-22T08:01:42.976Z,155
2017-01-22T08:02:49.146Z,170
2017-01-22T08:03:54.346Z,175
2017-01-22T08:05:00.514Z,185
2017-01-22T08:06:05.785Z,190
2017-01-22T08:07:11.953Z,195
2017-01-22T08:08:17.124Z,200
2017-01-22T08:09:23.314Z,205
2017-01-22T08:10:28.464Z,210
2017-01-22T08:11:33.662Z,215
2017-01-22T08:12:39.864Z,225
2017-01-22T08:13:46.006Z,230
2017-01-22T08:14:52.166Z,235
2017-01-22T08:15:58.331Z,240
2017-01-22T08:17:04.504Z,245
2017-01-22T08:18:08.733Z,250
2017-01-22T08:19:12.994Z,255
2017-01-22T08:20:17.187Z,260
2017-01-22T08:21:22.368Z,270
2017-01-22T08:22:28.544Z,275
2017-01-22T08:23:34.718Z,280
2017-01-22T08:24:40.896Z,290
2017-01-22T08:25:46.076Z,295
2017-01-22T08:26:51.389Z,305
2017-01-22T08:27:57.610Z,320
2017-01-22T08:29:01.809Z,330
2017-01-22T08:30:07.984Z,345
2017-01-22T08:31:14.158Z,355
2017-01-22T08:32:18.363Z,370
2017-01-22T08:33:23.582Z,385
2017-01-22T08:34:28.816Z,405
2017-01-22T08:35:34.957Z,420
2017-01-22T08:36:40.195Z,430
2017-01-22T08:37:45.367Z,435
2017-01-22T08:38:49.578Z,450
2017-01-22T08:39:55.748Z,470
2017-01-22T08:41:00.948Z,485
2017-01-22T08:42:07.127Z,490
2017-01-22T08:43:12.304Z,505
2017-01-22T08:44:18.474Z,520
2017-01-22T08:45:22.684Z,525
2017-01-22T08:46:27.949Z,540
2017-01-22T08:47:33.103Z,545
2017-01-22T08:48:38.315Z,545
2017-01-22T08:49:44.488Z,560
2017-01-22T08:50:47.730Z,570
2017-01-22T08:51:52.905Z,585
2017-01-22T08:52:58.178Z,595
2017-01-22T08:54:04.268Z,600
2017-01-22T08:55:10.445Z,610
2017-01-22T08:56:16.614Z,620
2017-01-22T08:57:22.790Z,630
2017-01-22T08:58:28.975Z,640
2017-01-22T08:59:33.273Z,655
2017-01-22T09:00:39.399Z,660
2017-01-22T09:01:43.685Z,665
2017-01-22T09:02:49.865Z,670
2017-01-22T09:03:56.029Z,680
2017-01-22T09:05:00.271Z,680
2017-01-22T09:06:05.589Z,695
2017-01-22T09:07:09.875Z,700
2017-01-22T09:08:13.065Z,720
2017-01-22T09:09:19.247Z,745
2017-01-22T09:10:24.421Z,760
2017-01-22T09:11:29.634Z,770
2017-01-22T09:12:34.843Z,785
2017-01-22T09:13:40.037Z,810
2017-01-22T09:14:45.226Z,820
2017-01-22T09:15:51.409Z,785
2017-01-22T09:16:56.641Z,770
2017-01-22T09:18:00.918Z,780
2017-01-22T09:19:05.151Z,785
2017-01-22T09:20:10.390Z,785
2017-01-22T09:21:16.543Z,785
2017-01-22T09:22:22.724Z,795
2017-01-22T09:23:28.049Z,800
2017-01-22T09:24:32.283Z,810
2017-01-22T09:25:38.460Z,825
2017-01-22T09:26:44.663Z,840
2017-01-22T09:27:50.843Z,840
2017-01-22T09:28:57.061Z,840
2017-01-22T09:30:00.333Z,850
2017-01-22T09:31:06.604Z,860
2017-01-22T09:32:12.826Z,855
2017-01-22T09:33:18.034Z,865
2017-01-22T09:34:23.211Z,880
2017-01-22T09:35:27.531Z,885
2017-01-22T09:36:33.721Z,890
2017-01-22T09:37:39.910Z,900
2017-01-22T09:38:45.091Z,915
2017-01-22T09:39:51.326Z,925
2017-01-22T09:40:56.539Z,945
2017-01-22T09:42:02.687Z,945
2017-01-22T09:43:07.897Z,960
2017-01-22T09:44:12.107Z,965
2017-01-22T09:45:16.332Z,970
2017-01-22T09:46:21.572Z,975
2017-01-22T09:47:26.795Z,975
2017-01-22T09:48:33.017Z,990
2017-01-22T09:49:38.204Z,1005
2017-01-22T09:50:43.421Z,1000
2017-01-22T09:51:49.599Z,1020
2017-01-22T09:52:55.768Z,1035
2017-01-22T09:54:01.946Z,1050
2017-01-22T09:55:05.210Z,1060
2017-01-22T09:56:09.539Z,1075
2017-01-22T09:57:14.718Z,1080
2017-01-22T09:58:19.939Z,1095
2017-01-22T09:59:26.142Z,1085
2017-01-22T10:00:31.350Z,1095
2017-01-22T10:01:37.523Z,1110
2017-01-22T10:02:42.728Z,1125
2017-01-22T10:03:48.909Z,1160
2017-01-22T10:04:53.146Z,1180
2017-01-22T10:05:58.354Z,1230
2017-01-22T10:07:03.569Z,1300
2017-01-22T10:08:09.752Z,1365
2017-01-22T10:09:14.962Z,1415
2017-01-22T10:10:20.170Z,1450
2017-01-22T10:11:25.353Z,1470
2017-01-22T10:12:29.571Z,1470
2017-01-22T10:13:35.742Z,1480
2017-01-22T10:14:40.944Z,1480
2017-01-22T10:15:45.156Z,1490
2017-01-22T10:16:51.345Z,1475
2017-01-22T10:17:55.588Z,1300
2017-01-22T10:18:58.840Z,1195
2017-01-22T10:20:03.113Z,1200
2017-01-22T10:21:08.336Z,1185
2017-01-22T10:22:13.548Z,1150
2017-01-22T10:23:19.739Z,1145
2017-01-22T10:24:25.904Z,1130
2017-01-22T10:25:32.091Z,1145
2017-01-22T10:26:37.303Z,1145
2017-01-22T10:27:43.477Z,1140
2017-01-22T10:28:49.657Z,1150
2017-01-22T10:29:55.962Z,1155
2017-01-22T10:31:00.106Z,1165
2017-01-22T10:32:05.312Z,1160
2017-01-22T10:33:11.491Z,1140
2017-01-22T10:34:16.704Z,1170
2017-01-22T10:35:20.989Z,1185
2017-01-22T10:36:27.173Z,1180
2017-01-22T10:37:31.417Z,1160
2017-01-22T10:38:35.628Z,1165
2017-01-22T10:39:40.806Z,1190
2017-01-22T10:40:46.007Z,1195
2017-01-22T10:41:51.260Z,1185
2017-01-22T10:42:56.435Z,1165
2017-01-22T10:44:02.635Z,1155
2017-01-22T10:45:07.812Z,1150
2017-01-22T10:46:14.002Z,1160
2017-01-22T10:47:18.244Z,1145
2017-01-22T10:48:22.561Z,1125
2017-01-22T10:49:28.838Z,1290
2017-01-22T10:50:34.063Z,1270
2017-01-22T10:51:39.282Z,1150
2017-01-22T10:52:43.515Z,1130
2017-01-22T10:53:49.690Z,1100
2017-01-22T10:54:55.870Z,1090
2017-01-22T10:56:01.115Z,1075
2017-01-22T10:57:04.449Z,1080
2017-01-22T10:58:10.626Z,1090
2017-01-22T10:59:16.017Z,1105
2017-01-22T11:00:22.154Z,1075
2017-01-22T11:01:26.357Z,855
2017-01-22T11:02:31.566Z,375
2017-01-22T11:03:37.776Z,260
2017-01-22T11:04:42.943Z,240
2017-01-22T11:05:49.118Z,220
2017-01-22T11:06:55.301Z,220
2017-01-22T11:08:00.509Z,220
2017-01-22T11:09:05.719Z,230
2017-01-22T11:10:09.927Z,250
2017-01-22T11:11:16.095Z,435
2017-01-22T11:12:21.355Z,835
2017-01-22T11:13:26.572Z,465
2017-01-22T11:14:30.828Z,220
2017-01-22T11:15:36.038Z,220
2017-01-22T11:16:42.202Z,215
2017-01-22T11:17:46.455Z,210
2017-01-22T11:18:50.751Z,205
2017-01-22T11:19:56.923Z,205
2017-01-22T11:21:02.141Z,205
2017-01-22T11:22:07.321Z,200
2017-01-22T11:23:13.493Z,200
2017-01-22T11:24:17.733Z,200
2017-01-22T11:25:22.926Z,200
2017-01-22T11:26:28.115Z,200
2017-01-22T11:27:33.335Z,200
2017-01-22T11:28:39.491Z,200
2017-01-22T11:29:44.663Z,200
2017-01-22T11:30:49.838Z,200
2017-01-22T11:31:56.019Z,200
2017-01-22T11:33:02.205Z,200
2017-01-22T11:34:06.411Z,200
2017-01-22T11:35:11.611Z,195
2017-01-22T11:36:17.779Z,195
2017-01-22T11:37:22.993Z,195
2017-01-22T11:38:29.162Z,195
2017-01-22T11:39:33.369Z,195
2017-01-22T11:40:38.569Z,195
2017-01-22T11:41:43.869Z,195
2017-01-22T11:42:50.035Z,195
2017-01-22T11:43:56.210Z,195
2017-01-22T11:45:02.492Z,195
2017-01-22T11:46:08.663Z,195
2017-01-22T11:47:13.871Z,195
2017-01-22T11:48:20.041Z,195
2017-01-22T11:49:23.303Z,195
2017-01-22T11:50:28.542Z,190
2017-01-22T11:51:34.715Z,190
2017-01-22T11:52:40.897Z,190
2017-01-22T11:53:46.103Z,190
2017-01-22T11:54:52.263Z,190
2017-01-22T11:55:57.462Z,190
2017-01-22T11:57:02.675Z,190
2017-01-22T11:58:07.921Z,190
2017-01-22T11:59:13.084Z,190
2017-01-22T12:00:17.324Z,190
2017-01-22T12:01:21.522Z,185
2017-01-22T12:02:25.752Z,185
2017-01-22T12:03:29.984Z,185
2017-01-22T12:04:34.216Z,185
2017-01-22T12:05:37.485Z,185
2017-01-22T12:06:38.789Z,185
2017-01-22T12:07:43.984Z,185
2017-01-22T12:08:49.163Z,185
2017-01-22T12:09:55.338Z,185
2017-01-22T12:11:01.509Z,180
2017-01-22T12:12:06.677Z,180
2017-01-22T12:13:12.840Z,180
2017-01-22T12:14:18.026Z,180
2017-01-22T12:15:22.262Z,180
2017-01-22T12:16:28.450Z,180
2017-01-22T12:17:34.595Z,180
2017-01-22T12:18:40.767Z,185
2017-01-22T12:19:44.988Z,180
2017-01-22T12:20:51.151Z,180
2017-01-22T12:21:56.320Z,180
2017-01-22T12:23:01.502Z,175
2017-01-22T12:24:07.679Z,175
2017-01-22T12:25:12.934Z,175
2017-01-22T12:26:18.112Z,175
2017-01-22T12:27:22.452Z,175
2017-01-22T12:28:25.721Z,175
2017-01-22T12:29:31.888Z,175
2017-01-22T12:30:37.078Z,170
2017-01-22T12:31:41.318Z,170
2017-01-22T12:32:47.569Z,170
2017-01-22T12:33:53.739Z,170
2017-01-22T12:34:59.051Z,170
2017-01-22T12:36:03.402Z,170
2017-01-22T12:37:09.577Z,170
2017-01-22T12:38:14.855Z,170
2017-01-22T12:39:20.065Z,170
2017-01-22T12:40:23.304Z,165
2017-01-22T12:41:29.525Z,165
2017-01-22T12:42:34.700Z,165
2017-01-22T12:43:40.885Z,165
2017-01-22T12:44:46.083Z,165
2017-01-22T12:45:51.279Z,165
2017-01-22T12:46:56.483Z,165
2017-01-22T12:48:02.651Z,170
2017-01-22T12:49:07.820Z,165
2017-01-22T12:50:12.999Z,170
2017-01-22T12:51:17.231Z,165
2017-01-22T12:52:23.408Z,165
2017-01-22T12:53:27.627Z,165
2017-01-22T12:54:32.817Z,165
2017-01-22T12:55:38.988Z,160
2017-01-22T12:56:44.165Z,160
2017-01-22T12:57:49.370Z,160
2017-01-22T12:58:54.618Z,160
2017-01-22T12:59:58.833Z,160
2017-01-22T13:01:05.004Z,160
2017-01-22T13:02:10.212Z,160
2017-01-22T13:03:15.396Z,160
2017-01-22T13:04:18.655Z,160
2017-01-22T13:05:24.835Z,160
2017-01-22T13:06:30.039Z,160
2017-01-22T13:07:36.254Z,155
2017-01-22T13:08:42.436Z,155
2017-01-22T13:09:46.684Z,155
2017-01-22T13:10:51.882Z,155
2017-01-22T13:11:57.123Z,155
2017-01-22T13:13:03.290Z,155
2017-01-22T13:14:08.520Z,155
2017-01-22T13:15:13.692Z,155
2017-01-22T13:16:19.866Z,155
2017-01-22T13:17:25.069Z,150
2017-01-22T13:18:30.360Z,150
2017-01-22T13:19:35.575Z,150
2017-01-22T13:20:40.812Z,150
2017-01-22T13:21:46.019Z,150
2017-01-22T13:22:51.211Z,150
2017-01-22T13:23:57.430Z,150
2017-01-22T13:25:03.597Z,150
2017-01-22T13:26:07.842Z,150
2017-01-22T13:27:13.017Z,150
2017-01-22T13:28:19.184Z,145
2017-01-22T13:29:25.345Z,145
2017-01-22T13:30:30.562Z,145
2017-01-22T13:31:35.747Z,145
2017-01-22T13:32:41.978Z,145
2017-01-22T13:33:47.147Z,145
2017-01-22T13:34:53.351Z,145
2017-01-22T13:35:59.477Z,145
2017-01-22T13:37:04.685Z,145
2017-01-22T13:38:09.876Z,145
2017-01-22T13:39:15.075Z,145
2017-01-22T13:40:21.375Z,145
2017-01-22T13:41:27.539Z,145
2017-01-22T13:42:33.714Z,145
2017-01-22T13:43:39.884Z,145
2017-01-22T13:44:46.047Z,145
2017-01-22T13:45:52.229Z,145
2017-01-22T13:46:57.430Z,145
2017-01-22T13:48:02.598Z,140
2017-01-22T13:49:07.804Z,140
2017-01-22T13:50:14.007Z,140
2017-01-22T13:51:19.168Z,140
2017-01-22T13:52:25.339Z,140
2017-01-22T13:53:31.542Z,140
2017-01-22T13:54:37.693Z,140
2017-01-22T13:55:43.039Z,140
2017-01-22T13:56:48.240Z,135
2017-01-22T13:57:54.413Z,135
2017-01-22T13:59:00.586Z,135
2017-01-22T14:01:10.961Z,135
2017-01-22T14:02:17.125Z,135
2017-01-22T14:03:23.303Z,130
2017-01-22T14:04:27.644Z,130
2017-01-22T14:05:33.817Z,130
2017-01-22T14:06:39.012Z,130
2017-01-22T14:07:42.286Z,130
2017-01-22T14:08:48.455Z,130
2017-01-22T14:09:54.631Z,130
2017-01-22T14:10:59.835Z,125
2017-01-22T14:12:06.010Z,125
2017-01-22T14:13:11.209Z,125
2017-01-22T14:14:15.420Z,125
2017-01-22T14:15:21.598Z,125
2017-01-22T14:16:27.764Z,125
2017-01-22T14:17:32.952Z,125
2017-01-22T14:18:36.193Z,120
2017-01-22T14:19:42.360Z,120
2017-01-22T14:20:45.711Z,120
2017-01-22T14:21:50.882Z,120
2017-01-22T14:22:57.053Z,120
2017-01-22T14:24:00.297Z,120
2017-01-22T14:25:05.474Z,115
2017-01-22T14:26:11.732Z,115
2017-01-22T14:27:17.897Z,115
2017-01-22T14:28:21.138Z,115
2017-01-22T14:29:26.386Z,115
2017-01-22T14:30:31.592Z,115
2017-01-22T14:31:35.798Z,110
2017-01-22T14:32:41.981Z,110
2017-01-22T14:33:46.206Z,110
2017-01-22T14:34:51.406Z,110
2017-01-22T14:35:56.695Z,110
2017-01-22T14:37:02.859Z,110
2017-01-22T14:38:09.183Z,105
2017-01-22T14:39:13.409Z,105
2017-01-22T14:40:18.608Z,105
2017-01-22T14:41:24.780Z,105
2017-01-22T14:42:29.010Z,105
2017-01-22T14:43:35.179Z,100
2017-01-22T14:44:41.376Z,100
2017-01-22T14:45:46.543Z,100
2017-01-22T14:46:51.829Z,100
2017-01-22T14:47:57.994Z,100
2017-01-22T14:49:04.163Z,95
2017-01-22T14:50:07.415Z,95
2017-01-22T14:51:11.645Z,95
2017-01-22T14:52:16.851Z,95
2017-01-22T14:53:22.060Z,90
2017-01-22T14:54:27.227Z,90
2017-01-22T14:55:31.479Z,90
2017-01-22T14:56:37.678Z,90
2017-01-22T14:57:43.852Z,90
2017-01-22T14:58:48.032Z,85
2017-01-22T14:59:53.233Z,85
2017-01-22T15:00:59.405Z,85
2017-01-22T15:02:05.570Z,80
2017-01-22T15:03:11.738Z,80
2017-01-22T15:04:17.951Z,80
2017-01-22T15:05:23.109Z,80
2017-01-22T15:06:29.284Z,75
2017-01-22T15:07:33.593Z,75
2017-01-22T15:08:39.756Z,75
2017-01-22T15:09:44.967Z,75
2017-01-22T15:10:51.147Z,75
2017-01-22T15:11:56.402Z,70
2017-01-22T15:13:02.707Z,70
2017-01-22T15:14:07.922Z,70
2017-01-22T15:15:14.116Z,65
2017-01-22T15:16:20.283Z,65
2017-01-22T15:17:26.468Z,65
2017-01-22T15:18:31.721Z,65
2017-01-22T15:19:35.931Z,60
2017-01-22T15:20:40.256Z,60
2017-01-22T15:21:45.472Z,60
2017-01-22T15:22:50.728Z,55
2017-01-22T15:23:55.935Z,55
2017-01-22T15:25:01.138Z,55
2017-01-22T15:26:07.302Z,55
2017-01-22T15:27:11.514Z,50
2017-01-22T15:28:17.755Z,50
2017-01-22T15:29:24.015Z,50
2017-01-22T15:30:30.209Z,45
2017-01-22T15:31:36.370Z,45
2017-01-22T15:32:41.569Z,45
2017-01-22T15:33:47.785Z,45
2017-01-22T15:34:52.982Z,40